Stinson Beach, CA (94970)

9:21 AM PDT on April 25, 2015 (GMT -0700)
Stinson Beach | | Change Station
CLOSE
Current Station
Personal Weather Station
Location: Stinson Beach, CA
Elevation: 10 ft
Nearby Weather Stations

Elev 10 ft 37.91 °N, 122.67 °W | Updated 19 seconds ago

Overcast
Overcast
53.2 °F
Feels Like 53.2 °F
N
2.9
Wind Variable Wind from NE
Gusts 10.0 mph

Today
High -- | Low -- °F
--% Chance of Precip.
Yesterday
High -- | Low -- °F
Precip. -- in
6:22 AM 7:55 PM
Waxing Crescent, 47% visible
Pressure 29.97 in
Visibility 10.0 miles
Clouds Overcast 500 ft
Dew Point 50 °F
Humidity 87%
Rainfall 0.22 in
Snow Depth Not available.
UV 1 out of 12
Pollen 8.30 out of 12
Air Quality Not available.
Flu Activity Sporadic
METAR KO69 251615Z AUTO 25008KT 10SM OVC005 10/10 A2997 RMK AO1

More Conditions Fewer Conditions

Pressure 29.97 in
Visibility 10.0 miles
Clouds Overcast 500 ft
Dew Point 50 °F
Humidity 87%
Rainfall 0.22 in
Snow Depth Not available.
UV 1 out of 12
Pollen 8.30 out of 12
Air Quality Not available.
Flu Activity Sporadic
METAR KO69 251615Z AUTO 25008KT 10SM OVC005 10/10 A2997 RMK AO1

More Conditions Fewer Conditions

10-Day Weather Forecast

Almanac

Astronomy

Apr. 25, 2015 Rise Set
Actual Time
Civil Twilight
Nautical Twilight
Astronomical Twilight
Moon
Length of Visible Light
Length of Day
Tomorrow will be .
, % of the Moon is Illuminated

Today's Extremes

State Highs State Lows

Community

WunderPhotos

Upload Photos

1,816,732 photos uploaded!

WunderBlogs® & News

Nearby

Air Quality

  Air Quality AQ Index Pollutant
Not available.

Snow Depth

Station Depth Elevation

Earthquake Activity

City Distance Mag. Time & Date
Minimum magnitude displayed is 2.5.

Coastal Water Temperatures

Place Temperature

Stations

Nearby Weather Stations

Station Location Temp. Windchill Dew Point Humidity Wind Precip. Elev Updated Type